Terminal Aerodrome Forecast
Issued by NWS

Home | Current Version | Previous Version | Text Only | Print | Product List | Glossary On
Versions: 1 2 3 4 5 6 7 8 9 10 11 12 13
000
FTUS45 KTFX 181737
TAFGTF
TAF
KGTF 181737Z 1818/1918 24020G35KT P6SM BKN150
     FM182200 27015G25KT P6SM BKN100
     FM190300 31008KT P6SM SCT010 BKN090
     FM190600 VRB05KT 5SM -SN BR SCT008 BKN090=

USA.gov is the U.S. government's official web portal to all federal, state and local government web resources and services.